createdAt,value
2023-04-16T00:00:32.611Z,7.40
2023-04-16T00:03:19.726Z,7.40
2023-04-16T00:05:47.238Z,7.30
2023-04-16T00:08:14.241Z,7.30
2023-04-16T00:10:41.629Z,7.30
2023-04-16T00:13:08.625Z,7.30
2023-04-16T00:15:35.997Z,7.30
2023-04-16T00:18:03.369Z,8.50
2023-04-16T00:20:30.800Z,7.30
2023-04-16T00:22:58.025Z,8.20
2023-04-16T00:25:25.380Z,7.20
2023-04-16T00:27:52.386Z,8.20
2023-04-16T00:30:19.754Z,6.70
2023-04-16T00:32:46.761Z,7.40
2023-04-16T00:35:14.099Z,7.90
2023-04-16T00:37:41.158Z,7.10
2023-04-16T00:40:08.848Z,7.10
2023-04-16T00:42:37.112Z,7.10
2023-04-16T00:45:05.752Z,7.50
2023-04-16T00:47:33.545Z,7.10
2023-04-16T00:50:01.451Z,7.60
2023-04-16T00:52:29.386Z,7.00
2023-04-16T00:54:57.276Z,7.30
2023-04-16T00:57:24.627Z,7.00
2023-04-16T00:59:52.077Z,6.70
2023-04-16T01:02:19.572Z,7.00
2023-04-16T01:04:47.148Z,7.00
2023-04-16T01:07:14.197Z,7.10
2023-04-16T01:09:41.576Z,7.00
2023-04-16T01:12:10.411Z,7.00
2023-04-16T01:14:38.108Z,7.00
2023-04-16T01:17:05.159Z,7.00
2023-04-16T01:19:32.672Z,7.00
2023-04-16T01:21:59.702Z,7.00
2023-04-16T01:24:27.075Z,7.00
2023-04-16T01:26:54.222Z,7.00
2023-04-16T01:29:21.512Z,7.00
2023-04-16T01:31:49.947Z,7.20
2023-04-16T01:34:23.745Z,7.00
2023-04-16T01:36:51.225Z,6.90
2023-04-16T01:39:19.658Z,6.90
2023-04-16T01:41:46.765Z,6.90
2023-04-16T01:46:43.757Z,6.90
2023-04-16T01:49:11.324Z,6.90
2023-04-16T01:51:38.613Z,6.90
2023-04-16T01:54:06.208Z,7.10
2023-04-16T01:56:33.340Z,7.40
2023-04-16T01:59:00.706Z,6.90
2023-04-16T02:01:34.585Z,6.90
2023-04-16T02:04:02.306Z,6.90
2023-04-16T02:06:29.435Z,7.00
2023-04-16T02:08:56.728Z,6.90
2023-04-16T02:11:23.816Z,6.90
2023-04-16T02:13:51.614Z,6.90
2023-04-16T02:16:19.525Z,6.90
2023-04-16T02:18:52.840Z,6.90
2023-04-16T02:21:22.042Z,6.90
2023-04-16T02:23:51.841Z,7.10
2023-04-16T02:26:23.689Z,6.90
2023-04-16T02:28:51.915Z,6.80
2023-04-16T02:31:23.600Z,7.10
2023-04-16T02:33:51.443Z,6.80
2023-04-16T02:36:18.461Z,6.80
2023-04-16T02:38:45.993Z,6.30
2023-04-16T02:41:13.122Z,6.80
2023-04-16T02:43:40.853Z,7.30
2023-04-16T02:46:08.768Z,6.90
2023-04-16T02:48:36.285Z,6.80
2023-04-16T02:51:03.423Z,6.80
2023-04-16T02:53:30.934Z,7.10
2023-04-16T02:55:58.084Z,6.80
2023-04-16T02:58:26.545Z,6.80
2023-04-16T03:00:54.658Z,6.90
2023-04-16T03:03:22.462Z,7.60
2023-04-16T03:05:49.780Z,6.90
2023-04-16T03:08:17.216Z,6.80
2023-04-16T03:10:44.257Z,6.90
2023-04-16T03:13:11.653Z,6.40
2023-04-16T03:15:38.848Z,6.80
2023-04-16T03:18:06.241Z,6.80
2023-04-16T03:20:33.705Z,7.30
2023-04-16T03:23:01.313Z,6.80
2023-04-16T03:25:28.411Z,7.10
2023-04-16T03:27:55.910Z,6.80
2023-04-16T03:30:23.692Z,6.80
2023-04-16T03:32:52.082Z,6.80
2023-04-16T03:35:19.439Z,6.70
2023-04-16T03:37:46.804Z,6.70
2023-04-16T03:40:14.198Z,6.70
2023-04-16T03:42:41.842Z,6.70
2023-04-16T03:45:09.606Z,6.70
2023-04-16T03:47:38.197Z,6.60
2023-04-16T03:50:05.692Z,6.60
2023-04-16T03:52:33.304Z,6.60
2023-04-16T03:55:00.518Z,7.00
2023-04-16T03:57:31.192Z,8.20
2023-04-16T04:00:04.460Z,7.70
2023-04-16T04:02:41.837Z,6.70
2023-04-16T04:05:16.305Z,6.70
2023-04-16T04:07:45.014Z,6.70
2023-04-16T04:10:13.608Z,6.60
2023-04-16T04:12:42.791Z,6.70
2023-04-16T04:15:10.823Z,6.70
2023-04-16T04:17:38.218Z,6.70
2023-04-16T04:20:05.876Z,6.70
2023-04-16T04:22:33.418Z,6.70
2023-04-16T04:25:00.660Z,6.70
2023-04-16T04:27:30.396Z,6.70
2023-04-16T04:29:58.142Z,6.70
2023-04-16T04:32:25.792Z,6.60
2023-04-16T04:34:53.018Z,6.70
2023-04-16T04:37:21.374Z,6.80
2023-04-16T04:39:48.558Z,6.80
2023-04-16T04:42:19.416Z,6.80
2023-04-16T04:44:46.805Z,6.30
2023-04-16T04:47:15.122Z,7.30
2023-04-16T04:49:42.113Z,6.80
2023-04-16T04:52:09.561Z,6.80
2023-04-16T04:54:36.667Z,6.80
2023-04-16T04:57:04.025Z,6.80
2023-04-16T04:59:31.665Z,6.90
2023-04-16T05:02:00.386Z,7.80
2023-04-16T05:04:27.552Z,6.90
2023-04-16T05:06:55.112Z,6.90
2023-04-16T05:09:22.137Z,6.90
2023-04-16T05:11:49.881Z,7.00
2023-04-16T05:14:16.885Z,7.00
2023-04-16T05:16:44.321Z,7.00
2023-04-16T05:19:11.543Z,7.10
2023-04-16T05:21:38.994Z,7.10
2023-04-16T05:24:06.700Z,7.10
2023-04-16T05:26:34.057Z,7.20
2023-04-16T05:29:01.294Z,7.20
2023-04-16T05:31:28.717Z,7.20
2023-04-16T05:33:55.906Z,8.30
2023-04-16T05:36:23.339Z,7.20
2023-04-16T05:38:50.588Z,7.20
2023-04-16T05:41:17.904Z,7.20
2023-04-16T05:43:44.914Z,7.20
2023-04-16T05:46:12.382Z,7.20
2023-04-16T05:48:39.632Z,7.40
2023-04-16T05:51:08.408Z,7.10
2023-04-16T05:53:35.594Z,7.20
2023-04-16T05:56:02.955Z,7.30
2023-04-16T05:58:29.934Z,7.30
2023-04-16T06:00:57.351Z,7.30
2023-04-16T06:03:24.512Z,7.30
2023-04-16T06:05:51.927Z,7.30
2023-04-16T06:08:19.006Z,7.40
2023-04-16T06:10:47.408Z,7.50
2023-04-16T06:13:14.819Z,7.90
2023-04-16T06:15:42.369Z,7.50
2023-04-16T06:18:09.577Z,8.50
2023-04-16T06:20:37.126Z,7.70
2023-04-16T06:23:04.122Z,7.80
2023-04-16T06:25:31.500Z,7.80
2023-04-16T06:27:58.566Z,7.90
2023-04-16T06:30:26.022Z,8.20
2023-04-16T06:32:53.851Z,7.80
2023-04-16T06:35:21.368Z,7.80
2023-04-16T06:37:48.481Z,7.80
2023-04-16T06:40:16.515Z,7.80
2023-04-16T06:42:45.385Z,7.80
2023-04-16T06:45:13.793Z,7.80
2023-04-16T06:47:41.146Z,7.80
2023-04-16T06:50:08.809Z,8.70
2023-04-16T06:52:35.949Z,7.80
2023-04-16T06:55:03.775Z,7.80
2023-04-16T06:57:30.928Z,7.90
2023-04-16T06:59:58.178Z,7.90
2023-04-16T07:02:25.587Z,8.10
2023-04-16T07:04:53.010Z,8.00
2023-04-16T07:07:20.046Z,8.00
2023-04-16T07:09:47.349Z,8.10
2023-04-16T07:12:14.447Z,8.00
2023-04-16T07:14:42.103Z,7.90
2023-04-16T07:17:09.146Z,8.10
2023-04-16T07:19:37.100Z,8.30
2023-04-16T07:22:04.461Z,8.20
2023-04-16T07:24:32.436Z,8.10
2023-04-16T07:26:59.454Z,8.30
2023-04-16T07:29:26.846Z,8.30
2023-04-16T07:31:54.245Z,8.30
2023-04-16T07:34:21.914Z,9.60
2023-04-16T07:36:48.928Z,8.90
2023-04-16T07:39:16.278Z,8.50
2023-04-16T07:41:43.921Z,8.60
2023-04-16T07:44:11.265Z,8.70
2023-04-16T07:46:46.159Z,8.70
2023-04-16T07:49:15.455Z,8.90
2023-04-16T07:51:42.596Z,9.90
2023-04-16T07:54:11.073Z,9.30
2023-04-16T07:56:38.136Z,8.90
2023-04-16T07:59:19.127Z,9.20
2023-04-16T08:01:48.653Z,8.80
2023-04-16T08:04:20.214Z,8.80
2023-04-16T08:06:47.368Z,8.70
2023-04-16T08:09:14.618Z,8.70
2023-04-16T08:11:41.718Z,8.80
2023-04-16T08:14:09.126Z,8.80
2023-04-16T08:16:36.273Z,10.10
2023-04-16T08:19:03.722Z,9.00
2023-04-16T08:21:31.682Z,9.00
2023-04-16T08:23:59.063Z,9.20
2023-04-16T08:26:26.323Z,9.20
2023-04-16T08:28:53.579Z,9.30
2023-04-16T08:31:20.818Z,10.10
2023-04-16T08:33:48.077Z,9.50
2023-04-16T08:36:15.095Z,9.60
2023-04-16T08:38:42.507Z,9.60
2023-04-16T08:41:13.033Z,9.50
2023-04-16T08:43:45.445Z,10.00
2023-04-16T08:46:13.356Z,10.00
2023-04-16T08:48:43.094Z,10.20
2023-04-16T08:51:11.221Z,10.00
2023-04-16T08:54:07.779Z,10.00
2023-04-16T08:56:37.321Z,10.00
2023-04-16T08:59:05.700Z,9.90
2023-04-16T09:01:36.203Z,9.90
2023-04-16T09:04:04.997Z,10.80
2023-04-16T09:06:33.792Z,9.80
2023-04-16T09:09:04.623Z,9.80
2023-04-16T09:11:31.852Z,9.80
2023-04-16T09:14:00.631Z,9.80
2023-04-16T09:16:30.758Z,10.40
2023-04-16T09:18:58.160Z,9.50
2023-04-16T09:21:25.942Z,9.80
2023-04-16T09:23:56.884Z,9.80
2023-04-16T09:26:24.573Z,10.40
2023-04-16T09:28:51.987Z,9.80
2023-04-16T09:31:19.889Z,10.20
2023-04-16T09:34:05.532Z,9.80
2023-04-16T09:36:34.353Z,9.90
2023-04-16T09:39:03.792Z,9.90
2023-04-16T09:41:32.952Z,10.40
2023-04-16T09:44:05.275Z,10.00
2023-04-16T09:46:36.518Z,10.10
2023-04-16T09:49:33.680Z,10.10
2023-04-16T09:52:00.724Z,10.10
2023-04-16T09:54:28.256Z,10.00
2023-04-16T09:56:57.156Z,10.00
2023-04-16T09:59:25.485Z,11.10
2023-04-16T10:02:15.886Z,10.10
2023-04-16T10:04:49.014Z,10.20
2023-04-16T10:07:16.671Z,10.80
2023-04-16T10:09:44.785Z,10.80
2023-04-16T10:12:12.927Z,10.60
2023-04-16T10:14:41.575Z,10.50
2023-04-16T10:17:09.888Z,10.60
2023-04-16T10:19:37.377Z,10.60
2023-04-16T10:22:04.960Z,10.70
2023-04-16T10:24:34.572Z,10.60
2023-04-16T10:27:02.142Z,10.80
2023-04-16T10:29:31.472Z,11.40
2023-04-16T10:31:59.664Z,10.80
2023-04-16T10:34:28.911Z,10.90
2023-04-16T10:36:56.118Z,10.90
2023-04-16T10:39:25.243Z,10.90
2023-04-16T10:42:11.167Z,11.00
2023-04-16T10:44:45.254Z,11.10
2023-04-16T10:47:14.138Z,11.20
2023-04-16T10:49:42.692Z,11.20
2023-04-16T10:52:17.121Z,12.40
2023-04-16T10:54:44.654Z,11.50
2023-04-16T10:57:17.850Z,12.50
2023-04-16T10:59:46.167Z,11.60
2023-04-16T11:02:15.609Z,11.60
2023-04-16T11:04:45.765Z,11.70
2023-04-16T11:07:16.389Z,11.70
2023-04-16T11:10:05.288Z,11.80
2023-04-16T11:12:39.974Z,11.80
2023-04-16T11:15:09.745Z,11.90
2023-04-16T11:17:42.638Z,11.80
2023-04-16T11:20:19.210Z,11.80
2023-04-16T11:22:47.195Z,11.80
2023-04-16T11:25:20.835Z,12.40
2023-04-16T11:27:47.873Z,11.80
2023-04-16T11:30:15.440Z,12.10
2023-04-16T11:32:44.240Z,11.70
2023-04-16T11:35:17.694Z,11.70
2023-04-16T11:37:45.837Z,11.70
2023-04-16T11:40:13.572Z,11.70
2023-04-16T11:42:42.115Z,11.70
2023-04-16T11:45:11.294Z,11.70
2023-04-16T11:47:52.330Z,11.70
2023-04-16T11:50:22.534Z,11.70
2023-04-16T11:52:51.327Z,11.70
2023-04-16T11:55:19.952Z,11.70
2023-04-16T11:57:47.114Z,11.60
2023-04-16T12:00:15.149Z,11.60
2023-04-16T12:02:50.074Z,11.60
2023-04-16T12:05:33.791Z,11.60
2023-04-16T12:08:03.290Z,11.60
2023-04-16T12:10:34.994Z,11.70
2023-04-16T12:13:16.905Z,11.50
2023-04-16T12:15:56.120Z,11.50
2023-04-16T12:18:26.183Z,11.60
2023-04-16T12:20:53.771Z,11.60
2023-04-16T12:23:33.183Z,11.60
2023-04-16T12:26:10.432Z,11.60
2023-04-16T12:28:41.732Z,11.60
2023-04-16T12:31:10.788Z,11.50
2023-04-16T12:33:37.856Z,11.50
2023-04-16T12:36:18.775Z,11.20
2023-04-16T12:38:46.132Z,11.30
2023-04-16T12:41:13.620Z,12.00
2023-04-16T12:43:40.751Z,11.10
2023-04-16T12:46:08.285Z,11.20
2023-04-16T12:48:35.368Z,11.30
2023-04-16T12:51:03.008Z,11.30
2023-04-16T12:53:30.036Z,11.40
2023-04-16T12:55:57.704Z,11.50
2023-04-16T12:58:24.728Z,11.90
2023-04-16T13:00:51.976Z,11.70
2023-04-16T13:03:21.032Z,11.80
2023-04-16T13:05:48.787Z,11.90
2023-04-16T13:08:16.533Z,12.10
2023-04-16T13:10:44.236Z,12.10
2023-04-16T13:13:11.296Z,12.10
2023-04-16T13:15:38.732Z,12.20
2023-04-16T13:18:05.939Z,12.20
2023-04-16T13:20:33.496Z,12.20
2023-04-16T13:23:00.531Z,12.20
2023-04-16T13:25:28.277Z,12.50
2023-04-16T13:27:55.430Z,12.10
2023-04-16T13:30:22.745Z,12.20
2023-04-16T13:32:50.054Z,12.20
2023-04-16T13:35:17.628Z,12.20
2023-04-16T13:37:44.668Z,12.20
2023-04-16T13:40:12.088Z,12.10
2023-04-16T13:42:39.166Z,12.20
2023-04-16T13:45:07.037Z,12.20
2023-04-16T13:47:34.049Z,12.20
2023-04-16T13:50:01.430Z,12.20
2023-04-16T13:52:28.469Z,12.10
2023-04-16T13:54:56.348Z,12.20
2023-04-16T13:57:24.934Z,12.30
2023-04-16T13:59:52.204Z,12.30
2023-04-16T14:02:20.206Z,12.80
2023-04-16T14:04:47.745Z,12.60
2023-04-16T14:07:15.188Z,12.70
2023-04-16T14:09:42.719Z,12.70
2023-04-16T14:12:09.984Z,12.70
2023-04-16T14:14:37.406Z,12.70
2023-04-16T14:17:04.448Z,12.70
2023-04-16T14:19:32.487Z,12.80
2023-04-16T14:21:59.471Z,12.80
2023-04-16T14:24:26.874Z,12.90
2023-04-16T14:26:53.873Z,12.90
2023-04-16T14:29:21.582Z,12.80
2023-04-16T14:31:50.384Z,12.80
2023-04-16T14:34:17.734Z,12.80
2023-04-16T14:36:45.352Z,12.80
2023-04-16T14:39:12.877Z,13.60
2023-04-16T14:41:40.410Z,12.70
2023-04-16T14:44:08.286Z,12.70
2023-04-16T14:46:36.208Z,12.70
2023-04-16T14:49:04.038Z,12.70
2023-04-16T14:51:31.873Z,12.60
2023-04-16T14:53:59.370Z,12.60
2023-04-16T14:56:26.338Z,12.60
2023-04-16T14:58:53.739Z,12.60
2023-04-16T15:01:20.903Z,12.60
2023-04-16T15:03:48.623Z,12.60
2023-04-16T15:06:16.712Z,12.60
2023-04-16T15:08:44.465Z,12.50
2023-04-16T15:11:11.556Z,12.50
2023-04-16T15:13:39.092Z,12.50
2023-04-16T15:16:06.197Z,12.50
2023-04-16T15:18:33.779Z,12.60
2023-04-16T15:21:00.753Z,12.50
2023-04-16T15:23:28.236Z,12.50
2023-04-16T15:25:55.405Z,12.50
2023-04-16T15:28:22.748Z,12.50
2023-04-16T15:30:52.306Z,12.50
2023-04-16T15:33:22.767Z,13.10
2023-04-16T15:35:51.672Z,12.40
2023-04-16T15:38:21.306Z,12.30
2023-04-16T15:40:48.538Z,12.30
2023-04-16T15:43:16.242Z,12.30
2023-04-16T15:45:43.455Z,12.20
2023-04-16T15:48:10.977Z,12.10
2023-04-16T15:50:40.998Z,12.10
2023-04-16T15:53:08.358Z,12.20
2023-04-16T15:55:36.180Z,12.00
2023-04-16T15:58:03.813Z,13.10
2023-04-16T16:00:31.051Z,12.20
2023-04-16T16:02:58.638Z,11.90
2023-04-16T16:05:26.354Z,11.80
2023-04-16T16:07:53.757Z,11.70
2023-04-16T16:10:21.154Z,11.60
2023-04-16T16:12:48.907Z,11.50
2023-04-16T16:15:16.302Z,11.40
2023-04-16T16:17:43.809Z,11.30
2023-04-16T16:20:10.940Z,11.20
2023-04-16T16:22:39.166Z,11.50
2023-04-16T16:25:08.155Z,11.20
2023-04-16T16:27:36.425Z,11.20
2023-04-16T16:30:06.669Z,11.40
2023-04-16T16:32:34.686Z,11.10
2023-04-16T16:35:01.752Z,11.00
2023-04-16T16:37:29.623Z,11.00
2023-04-16T16:39:56.784Z,10.90
2023-04-16T16:42:24.257Z,12.10
2023-04-16T16:44:51.524Z,10.80
2023-04-16T16:47:18.891Z,11.00
2023-04-16T16:49:46.716Z,10.80
2023-04-16T16:52:14.204Z,10.70
2023-04-16T16:54:42.711Z,11.00
2023-04-16T16:57:10.123Z,11.80
2023-04-16T16:59:37.118Z,11.40
2023-04-16T17:02:05.737Z,11.40
2023-04-16T17:04:33.926Z,10.50
2023-04-16T17:07:01.436Z,10.50
2023-04-16T17:09:28.697Z,10.40
2023-04-16T17:11:57.035Z,10.30
2023-04-16T17:14:24.538Z,10.30
2023-04-16T17:16:52.163Z,10.20
2023-04-16T17:19:19.274Z,11.10
2023-04-16T17:21:46.614Z,10.10
2023-04-16T17:24:13.849Z,10.20
2023-04-16T17:26:41.413Z,10.00
2023-04-16T17:29:08.439Z,10.00
2023-04-16T17:31:36.455Z,9.90
2023-04-16T17:34:05.907Z,10.50
2023-04-16T17:36:33.294Z,9.80
2023-04-16T17:39:00.632Z,10.30
2023-04-16T17:41:28.025Z,9.80
2023-04-16T17:43:55.090Z,9.40
2023-04-16T17:46:22.547Z,11.20
2023-04-16T17:48:49.645Z,10.30
2023-04-16T17:51:17.070Z,9.70
2023-04-16T17:53:44.719Z,9.70
2023-04-16T17:56:13.135Z,9.90
2023-04-16T17:58:40.434Z,9.80
2023-04-16T18:01:07.814Z,10.60
2023-04-16T18:03:35.137Z,9.60
2023-04-16T18:06:02.868Z,9.60
2023-04-16T18:08:29.970Z,9.60
2023-04-16T18:10:57.491Z,10.10
2023-04-16T18:13:24.801Z,9.40
2023-04-16T18:15:53.024Z,9.40
2023-04-16T18:18:21.361Z,10.90
2023-04-16T18:20:48.796Z,9.30
2023-04-16T18:23:15.793Z,9.40
2023-04-16T18:25:43.237Z,9.10
2023-04-16T18:28:13.631Z,9.10
2023-04-16T18:30:41.554Z,9.00
2023-04-16T18:33:37.296Z,9.20
2023-04-16T18:35:56.120Z,8.90
2023-04-16T18:38:23.167Z,9.00
2023-04-16T18:40:50.520Z,8.80
2023-04-16T18:43:17.721Z,8.70
2023-04-16T18:45:45.150Z,10.40
2023-04-16T18:48:12.189Z,8.60
2023-04-16T18:50:39.710Z,8.60
2023-04-16T18:53:07.030Z,9.20
2023-04-16T18:55:34.674Z,8.90
2023-04-16T18:58:01.797Z,8.90
2023-04-16T19:00:29.280Z,9.10
2023-04-16T19:02:56.466Z,8.40
2023-04-16T19:05:24.062Z,8.30
2023-04-16T19:07:51.111Z,8.20
2023-04-16T19:10:18.465Z,8.20
2023-04-16T19:12:45.566Z,8.20
2023-04-16T19:15:14.738Z,8.20
2023-04-16T19:17:41.971Z,8.20
2023-04-16T19:20:11.355Z,8.00
2023-04-16T19:22:38.711Z,8.10
2023-04-16T19:25:07.238Z,8.70
2023-04-16T19:27:34.861Z,8.10
2023-04-16T19:30:03.165Z,9.00
2023-04-16T19:32:30.831Z,8.00
2023-04-16T19:34:58.200Z,8.00
2023-04-16T19:37:25.419Z,8.00
2023-04-16T19:39:52.787Z,9.30
2023-04-16T19:42:19.792Z,8.00
2023-04-16T19:44:47.373Z,7.90
2023-04-16T19:47:14.396Z,7.90
2023-04-16T19:49:43.644Z,7.90
2023-04-16T19:52:10.784Z,7.90
2023-04-16T19:54:38.467Z,8.90
2023-04-16T19:57:05.717Z,7.80
2023-04-16T19:59:33.138Z,7.80
2023-04-16T20:02:00.717Z,8.30
2023-04-16T20:04:28.630Z,7.70
2023-04-16T20:06:55.833Z,7.90
2023-04-16T20:09:25.348Z,7.70
2023-04-16T20:11:52.436Z,7.60
2023-04-16T20:14:19.891Z,7.60
2023-04-16T20:16:47.048Z,7.60
2023-04-16T20:19:17.108Z,7.60
2023-04-16T20:21:45.525Z,7.60
2023-04-16T20:24:12.947Z,7.60
2023-04-16T20:26:40.098Z,7.60
2023-04-16T20:29:07.374Z,7.60
2023-04-16T20:31:34.464Z,7.60
2023-04-16T20:34:01.930Z,7.60
2023-04-16T20:36:28.985Z,7.60
2023-04-16T20:38:56.309Z,8.10
2023-04-16T20:41:25.188Z,7.90
2023-04-16T20:43:52.974Z,8.10
2023-04-16T20:46:24.371Z,7.60
2023-04-16T20:48:52.089Z,7.70
2023-04-16T20:51:19.242Z,7.60
2023-04-16T20:53:46.595Z,7.70
2023-04-16T20:56:15.128Z,8.20
2023-04-16T20:58:43.546Z,7.70
2023-04-16T21:01:10.690Z,7.70
2023-04-16T21:03:38.488Z,7.80
2023-04-16T21:06:05.967Z,7.80
2023-04-16T21:08:33.376Z,7.80
2023-04-16T21:11:00.603Z,8.20
2023-04-16T21:13:27.954Z,7.80
2023-04-16T21:15:55.246Z,7.80
2023-04-16T21:18:22.641Z,7.70
2023-04-16T21:20:49.776Z,7.80
2023-04-16T21:23:17.307Z,7.70
2023-04-16T21:25:44.597Z,7.70
2023-04-16T21:28:11.890Z,7.70
2023-04-16T21:30:39.012Z,7.70
2023-04-16T21:33:06.750Z,7.60
2023-04-16T21:35:34.174Z,7.80
2023-04-16T21:38:01.536Z,8.10
2023-04-16T21:40:28.705Z,7.60
2023-04-16T21:42:55.943Z,7.60
2023-04-16T21:45:23.222Z,7.60
2023-04-16T21:47:50.661Z,7.60
2023-04-16T21:50:17.859Z,7.60
2023-04-16T21:52:46.259Z,7.70
2023-04-16T21:55:14.658Z,7.60
2023-04-16T21:57:42.066Z,7.60
2023-04-16T22:00:13.831Z,7.90
2023-04-16T22:02:42.712Z,7.70
2023-04-16T22:05:11.400Z,7.60
2023-04-16T22:07:38.902Z,7.60
2023-04-16T22:10:06.945Z,7.60
2023-04-16T22:12:37.847Z,7.60
2023-04-16T22:15:07.285Z,7.60
2023-04-16T22:17:34.786Z,7.60
2023-04-16T22:20:06.316Z,7.70
2023-04-16T22:22:33.936Z,7.60
2023-04-16T22:25:02.076Z,7.70
2023-04-16T22:27:29.589Z,8.40
2023-04-16T22:29:57.753Z,7.80
2023-04-16T22:32:25.306Z,8.00
2023-04-16T22:34:52.430Z,7.80
2023-04-16T22:37:19.692Z,7.80
2023-04-16T22:39:46.718Z,7.80
2023-04-16T22:42:14.039Z,8.30
2023-04-16T22:44:41.165Z,8.60
2023-04-16T22:47:08.496Z,7.90
2023-04-16T22:49:35.578Z,7.80
2023-04-16T22:52:03.076Z,8.10
2023-04-16T22:54:33.707Z,7.80
2023-04-16T22:57:01.113Z,7.90
2023-04-16T22:59:28.132Z,7.50
2023-04-16T23:01:55.596Z,8.00
2023-04-16T23:04:22.877Z,8.00
2023-04-16T23:06:50.436Z,8.00
2023-04-16T23:09:17.462Z,8.10
2023-04-16T23:11:44.826Z,8.10
2023-04-16T23:16:41.279Z,8.50
2023-04-16T23:19:14.712Z,8.30
2023-04-16T23:21:42.150Z,8.20
2023-04-16T23:24:09.301Z,8.20
2023-04-16T23:26:36.868Z,8.20
2023-04-16T23:29:03.981Z,8.20
2023-04-16T23:31:31.464Z,8.20
2023-04-16T23:33:58.553Z,8.20
2023-04-16T23:36:26.960Z,8.20
2023-04-16T23:38:54.017Z,8.20
2023-04-16T23:41:23.250Z,8.20
2023-04-16T23:43:50.527Z,8.20
2023-04-16T23:46:18.178Z,8.20
2023-04-16T23:48:45.259Z,8.20
2023-04-16T23:51:12.637Z,8.20
2023-04-16T23:53:40.851Z,8.20
2023-04-16T23:56:11.489Z,8.20
2023-04-16T23:58:38.553Z,8.20
